Time;durP1;ratioP1;P1;durP2;ratioP2;P2;SDS_P1;SDS_P2;PMS_P1;PMS_P2;Temp;Humidity;BMP_temperature;BMP_pressure;BME280_temperature;BME280_humidity;BME280_pressure;Samples;Min_cycle;Max_cycle;Signal;HPM_P1;HPM_P2
2022/05/15 00:02:23;;;;;;;7.18;6.28;;;;;;;15.37;75.18;95102.06;5097652;28;20263;-67
2022/05/15 00:04:50;;;;;;;6.47;5.93;;;;;;;15.36;75.23;95100.47;5097724;28;20192;-66
2022/05/15 00:07:17;;;;;;;7.65;6.72;;;;;;;15.33;75.10;95104.00;5097230;28;20561;-66
2022/05/15 00:09:44;;;;;;;6.55;5.95;;;;;;;15.29;75.40;95100.41;5096308;28;20192;-66
2022/05/15 00:12:12;;;;;;;6.68;5.90;;;;;;;15.28;75.58;95096.81;5096730;28;20196;-66
2022/05/15 00:14:38;;;;;;;7.10;6.40;;;;;;;15.23;75.29;95104.69;5097334;28;20191;-66
2022/05/15 00:17:06;;;;;;;6.80;6.20;;;;;;;15.21;75.49;95095.94;5096067;28;20188;-66
2022/05/15 00:19:34;;;;;;;6.40;5.88;;;;;;;15.20;74.93;95100.69;5097324;28;20188;-66
2022/05/15 00:22:01;;;;;;;7.00;6.30;;;;;;;15.24;74.55;95097.97;5096272;28;20208;-67
2022/05/15 00:24:28;;;;;;;6.93;6.20;;;;;;;15.27;74.09;95091.63;5096297;28;20189;-67
2022/05/15 00:26:55;;;;;;;7.07;6.38;;;;;;;15.32;73.66;95097.66;5096543;28;20261;-67
2022/05/15 00:29:22;;;;;;;7.72;6.13;;;;;;;15.35;73.38;95099.66;5097125;28;20184;-67
2022/05/15 00:31:49;;;;;;;6.63;6.00;;;;;;;15.37;73.42;95093.72;5096385;28;20185;-66
2022/05/15 00:34:15;;;;;;;7.05;5.93;;;;;;;15.37;73.11;95093.72;5096945;28;20533;-66
2022/05/15 00:36:44;;;;;;;6.18;5.60;;;;;;;15.36;72.85;95094.91;5096417;28;20213;-66
2022/05/15 00:39:11;;;;;;;7.30;6.60;;;;;;;15.35;72.96;95094.09;5096195;28;20199;-66
2022/05/15 00:41:39;;;;;;;6.68;6.07;;;;;;;15.35;73.16;95096.06;5110873;28;20231;-66
2022/05/15 00:44:07;;;;;;;6.57;5.88;;;;;;;15.32;73.17;95097.66;5117491;28;20199;-66
2022/05/15 00:46:36;;;;;;;6.43;5.78;;;;;;;15.31;73.28;95095.25;5116484;28;20211;-67
2022/05/15 00:49:05;;;;;;;7.03;6.10;;;;;;;15.27;73.66;95098.00;5117192;28;20299;-67
2022/05/15 00:51:36;;;;;;;6.60;5.88;;;;;;;15.24;73.67;95098.75;5117497;28;20196;-66
2022/05/15 00:54:08;;;;;;;6.75;6.15;;;;;;;15.20;73.48;95103.47;5117255;28;20206;-66
2022/05/15 00:56:38;;;;;;;7.72;6.20;;;;;;;15.16;73.66;95103.44;5116311;28;20208;-66
2022/05/15 00:59:09;;;;;;;6.88;6.18;;;;;;;15.11;74.17;95101.03;5116848;28;20176;-66
2022/05/15 01:01:36;;;;;;;7.65;6.43;;;;;;;15.03;73.33;95101.31;5116937;28;20207;-66
2022/05/15 01:04:05;;;;;;;6.93;6.22;;;;;;;14.93;73.20;95089.72;5117055;28;20200;-66
2022/05/15 01:06:33;;;;;;;7.65;6.30;;;;;;;14.84;73.09;95094.75;5115517;28;20211;-67
2022/05/15 01:09:02;;;;;;;7.85;7.10;;;;;;;14.83;73.63;95095.16;5116249;28;20195;-67
2022/05/15 01:11:30;;;;;;;6.78;6.15;;;;;;;14.78;73.38;95089.94;5116091;28;20195;-67
2022/05/15 01:13:57;;;;;;;6.93;6.22;;;;;;;14.72;73.52;95095.03;5115875;28;20195;-67
2022/05/15 01:16:26;;;;;;;6.70;6.10;;;;;;;14.65;73.35;95092.16;5115647;28;20196;-67
2022/05/15 01:18:57;;;;;;;6.47;5.93;;;;;;;14.61;73.75;95097.69;5115972;28;20196;-67
2022/05/15 01:21:29;;;;;;;6.90;6.22;;;;;;;14.57;73.68;95096.03;5115233;28;20207;-67
2022/05/15 01:23:56;;;;;;;6.70;6.13;;;;;;;14.58;74.00;95097.63;5115439;28;20202;-67
2022/05/15 01:26:24;;;;;;;7.30;6.47;;;;;;;14.58;73.86;95100.41;5116205;28;20511;-67
2022/05/15 01:28:51;;;;;;;6.90;6.20;;;;;;;14.58;73.92;95101.22;5115383;28;20199;-66
2022/05/15 01:31:19;;;;;;;6.70;6.10;;;;;;;14.56;73.72;95097.19;5115300;28;20203;-66
2022/05/15 01:33:48;;;;;;;6.78;5.93;;;;;;;14.53;73.83;95103.53;5115354;28;20187;-66
2022/05/15 01:36:15;;;;;;;6.75;6.20;;;;;;;14.53;74.16;95109.09;5115394;28;20200;-66
2022/05/15 01:38:43;;;;;;;6.63;6.13;;;;;;;14.51;73.93;95094.78;5114877;28;20211;-67
2022/05/15 01:41:12;;;;;;;7.05;6.22;;;;;;;14.46;73.79;95095.88;5114783;28;20231;-67
2022/05/15 01:43:40;;;;;;;6.50;5.93;;;;;;;14.44;74.17;95101.78;5115385;28;20207;-66
2022/05/15 01:46:06;;;;;;;6.82;6.22;;;;;;;14.43;74.57;95096.63;5115256;28;20264;-67
2022/05/15 01:48:34;;;;;;;6.75;6.15;;;;;;;14.42;74.89;95108.91;5114592;28;20191;-67
2022/05/15 01:51:01;;;;;;;7.30;6.60;;;;;;;14.43;75.02;95100.19;5115014;28;20207;-67
2022/05/15 01:53:27;;;;;;;7.38;6.78;;;;;;;14.41;75.15;95097.00;5115218;28;20195;-66
2022/05/15 01:55:56;;;;;;;6.22;5.72;;;;;;;14.42;74.97;95097.81;5115310;28;20191;-67
2022/05/15 01:58:22;;;;;;;6.20;5.70;;;;;;;14.42;75.13;95098.63;5114632;28;20192;-67
2022/05/15 02:00:50;;;;;;;6.93;6.32;;;;;;;14.41;75.18;95098.97;5115975;28;20190;-67
2022/05/15 02:03:18;;;;;;;5.93;5.32;;;;;;;14.39;74.83;95104.13;5114806;28;20227;-68
2022/05/15 02:05:44;;;;;;;6.85;6.20;;;;;;;14.33;74.62;95100.06;5115044;28;20199;-67
2022/05/15 02:08:12;;;;;;;6.20;5.68;;;;;;;14.30;74.80;95101.59;5115314;28;20196;-67
2022/05/15 02:10:38;;;;;;;6.30;5.80;;;;;;;14.29;75.37;95094.47;5114947;28;20215;-68
2022/05/15 02:13:07;;;;;;;6.72;6.13;;;;;;;14.27;75.15;95094.06;5115625;28;20191;-67
2022/05/15 02:15:34;;;;;;;6.38;5.88;;;;;;;14.28;75.29;95092.88;5117479;28;20198;-67
2022/05/15 02:18:01;;;;;;;6.53;5.93;;;;;;;14.25;74.92;95095.59;5115480;28;20214;-67
2022/05/15 02:20:28;;;;;;;7.95;5.80;;;;;;;14.25;75.27;95099.16;5114436;28;20261;-67
2022/05/15 02:22:55;;;;;;;6.47;5.40;;;;;;;14.24;75.02;95103.13;5114892;28;20203;-67
2022/05/15 02:25:22;;;;;;;6.50;5.82;;;;;;;14.23;75.01;95101.50;5114852;28;20203;-67
2022/05/15 02:27:50;;;;;;;10.80;6.15;;;;;;;14.17;74.63;95108.56;5114358;28;20643;-67
2022/05/15 02:30:20;;;;;;;6.60;5.68;;;;;;;14.12;74.49;95097.78;5115051;28;20203;-67
2022/05/15 02:32:47;;;;;;;7.05;5.85;;;;;;;14.07;73.91;95104.47;5114704;28;20191;-67
2022/05/15 02:35:14;;;;;;;7.50;5.10;;;;;;;14.03;73.78;95103.63;5114771;28;20290;-67
2022/05/15 02:37:42;;;;;;;6.15;5.35;;;;;;;13.99;73.10;95102.78;5115449;28;20183;-67
2022/05/15 02:40:10;;;;;;;5.18;4.68;;;;;;;13.96;73.00;95111.84;5115449;28;20211;-67
2022/05/15 02:42:37;;;;;;;5.82;4.97;;;;;;;13.91;72.90;95121.28;5115597;28;20192;-67
2022/05/15 02:45:04;;;;;;;5.53;5.13;;;;;;;13.89;72.83;95114.50;5115556;28;20207;-67
2022/05/15 02:47:33;;;;;;;5.90;5.03;;;;;;;13.89;73.44;95114.50;5115514;28;20269;-66
2022/05/15 02:52:45;;;;;;;6.15;5.00;;;;;;;13.91;72.73;95124.06;5114789;28;20192;-67
2022/05/15 02:55:12;;;;;;;6.10;5.00;;;;;;;13.86;72.94;95120.78;5115244;28;20504;-67
2022/05/15 02:57:40;;;;;;;7.22;5.20;;;;;;;13.86;73.22;95124.34;5114449;28;20207;-67
2022/05/15 03:00:09;;;;;;;6.82;5.43;;;;;;;13.84;73.70;95125.91;5118346;28;20192;-66
2022/05/15 03:02:37;;;;;;;6.43;4.97;;;;;;;13.85;73.34;95130.28;5118316;28;20200;-66
2022/05/15 03:05:22;;;;;;;6.03;5.43;;;;;;;13.91;73.71;95126.81;5118060;28;20206;-66
2022/05/15 03:07:49;;;;;;;6.03;5.47;;;;;;;13.98;73.60;95134.47;5118397;28;20223;-66
2022/05/15 03:10:18;;;;;;;5.97;5.43;;;;;;;14.02;73.37;95135.31;5119222;28;20188;-66
2022/05/15 03:12:45;;;;;;;5.55;5.05;;;;;;;14.06;73.12;95130.59;5119312;28;20199;-67
2022/05/15 03:15:14;;;;;;;5.50;4.90;;;;;;;14.09;72.67;95140.97;5119447;28;20187;-66
2022/05/15 03:17:43;;;;;;;5.55;5.05;;;;;;;14.13;72.65;95136.25;5118580;28;20199;-68
2022/05/15 03:20:11;;;;;;;5.55;4.82;;;;;;;14.17;72.85;95133.53;5119213;28;20188;-67
2022/05/15 03:22:38;;;;;;;6.10;4.90;;;;;;;14.20;72.38;95139.13;5118482;28;20511;-66
2022/05/15 03:25:06;;;;;;;5.32;4.72;;;;;;;14.23;71.99;95139.53;5118266;28;20196;-66
2022/05/15 03:27:33;;;;;;;4.78;4.28;;;;;;;14.23;72.05;95140.34;5118593;28;20214;-66
2022/05/15 03:30:00;;;;;;;5.38;4.88;;;;;;;14.20;72.78;95135.56;5117899;28;20196;-66
2022/05/15 03:32:26;;;;;;;5.47;5.00;;;;;;;14.15;73.11;95142.22;5118480;28;20199;-66
2022/05/15 03:34:55;;;;;;;5.53;5.03;;;;;;;14.09;73.07;95145.69;5118778;28;20191;-67
2022/05/15 03:37:21;;;;;;;5.90;4.95;;;;;;;14.02;73.02;95140.84;5118978;28;20191;-67
2022/05/15 03:39:49;;;;;;;6.95;5.28;;;;;;;13.97;73.43;95135.59;5118538;28;20183;-67
2022/05/15 03:42:15;;;;;;;5.97;5.20;;;;;;;13.96;73.72;95143.13;5118189;28;20231;-67
2022/05/15 03:44:42;;;;;;;5.75;5.25;;;;;;;13.95;73.52;95144.31;5118108;28;20207;-68
2022/05/15 03:47:09;;;;;;;6.68;5.18;;;;;;;13.93;73.30;95138.31;5118404;28;20215;-67
2022/05/15 03:49:37;;;;;;;7.93;5.65;;;;;;;13.92;73.29;95141.47;5117559;28;20206;-67
2022/05/15 03:52:06;;;;;;;6.28;5.50;;;;;;;13.93;73.96;95143.06;5117209;28;20195;-67
2022/05/15 03:54:32;;;;;;;8.27;5.47;;;;;;;13.96;74.30;95142.34;5118440;28;20211;-67
2022/05/15 03:56:59;;;;;;;6.72;5.22;;;;;;;13.97;74.05;95138.38;5118462;28;20192;-67
2022/05/15 03:59:29;;;;;;;6.97;5.30;;;;;;;13.99;74.68;95146.34;5117984;28;20195;-67
2022/05/15 04:01:56;;;;;;;6.63;5.32;;;;;;;14.00;74.47;95142.38;5118108;28;20191;-67
2022/05/15 04:04:22;;;;;;;10.82;5.18;;;;;;;14.01;74.42;95146.75;5117995;28;20208;-67
2022/05/15 04:06:49;;;;;;;8.05;5.57;;;;;;;14.03;74.60;95147.19;5117335;28;20215;-67
2022/05/15 04:09:18;;;;;;;7.35;5.18;;;;;;;14.03;74.60;95148.00;5117974;28;20187;-66
2022/05/15 04:11:45;;;;;;;6.22;5.32;;;;;;;14.05;74.76;95150.38;5117265;28;20265;-67
2022/05/15 04:14:12;;;;;;;5.85;4.93;;;;;;;14.06;75.00;95150.03;5117166;28;20192;-67
2022/05/15 04:16:39;;;;;;;6.65;5.60;;;;;;;14.09;75.15;95149.28;5117656;28;20247;-67
2022/05/15 04:19:06;;;;;;;6.80;5.22;;;;;;;14.12;75.48;95156.81;5116999;28;20612;-67
2022/05/15 04:21:37;;;;;;;7.68;5.30;;;;;;;14.15;75.74;95160.84;5117106;28;20196;-67
2022/05/15 04:24:05;;;;;;;6.43;5.63;;;;;;;14.18;75.87;95157.31;5117478;28;20634;-66
2022/05/15 04:26:34;;;;;;;6.75;5.43;;;;;;;14.22;76.11;95160.94;5117285;28;20180;-66
2022/05/15 04:29:01;;;;;;;7.43;5.45;;;;;;;14.28;76.01;95159.44;5116577;28;20631;-66
2022/05/15 04:31:29;;;;;;;7.68;5.05;;;;;;;14.37;75.24;95159.16;5116610;28;20261;-66
2022/05/15 04:33:56;;;;;;;6.93;5.28;;;;;;;14.46;75.17;95159.72;5117473;28;20207;-66
2022/05/15 04:36:22;;;;;;;5.97;5.35;;;;;;;14.57;74.76;95166.22;5117717;28;20195;-66
2022/05/15 04:38:49;;;;;;;7.78;5.15;;;;;;;14.63;74.63;95164.72;5117831;28;20182;-67
2022/05/15 04:41:16;;;;;;;5.85;5.35;;;;;;;14.72;74.31;95167.22;5117164;28;20675;-66
2022/05/15 04:43:44;;;;;;;6.78;5.10;;;;;;;14.81;73.86;95161.38;5118263;28;20187;-66
2022/05/15 04:46:11;;;;;;;5.28;4.78;;;;;;;14.90;73.84;95159.09;5118075;28;20195;-68
2022/05/15 04:48:38;;;;;;;6.28;5.10;;;;;;;14.94;74.00;95165.50;5116934;28;20547;-68
2022/05/15 04:51:05;;;;;;;7.90;5.78;;;;;;;15.02;73.33;95161.63;5117294;28;20290;-68
2022/05/15 04:53:32;;;;;;;6.97;5.70;;;;;;;15.06;73.75;95165.22;5117155;28;20202;-67
2022/05/15 04:55:59;;;;;;;7.18;5.63;;;;;;;15.16;72.41;95164.56;5118245;28;20192;-67
2022/05/15 04:58:26;;;;;;;7.70;5.20;;;;;;;15.26;71.67;95165.06;5116685;28;20195;-68
2022/05/15 05:00:55;;;;;;;6.93;5.43;;;;;;;15.30;71.69;95163.13;5117920;28;20205;-67
2022/05/15 05:03:22;;;;;;;6.38;5.13;;;;;;;15.39;71.06;95160.81;5118277;28;20199;-68
2022/05/15 05:05:49;;;;;;;6.10;4.82;;;;;;;15.53;69.75;95168.50;5117398;28;20187;-68
2022/05/15 05:08:16;;;;;;;4.60;4.22;;;;;;;15.64;68.83;95167.41;5116729;28;20207;-67
2022/05/15 05:10:43;;;;;;;4.85;4.45;;;;;;;15.76;68.14;95171.13;5116600;28;20183;-68
2022/05/15 05:13:09;;;;;;;4.82;4.13;;;;;;;15.87;67.37;95172.03;5116489;28;20203;-66
2022/05/15 05:15:36;;;;;;;4.95;4.53;;;;;;;15.95;67.38;95170.13;5116145;28;20203;-66
2022/05/15 05:18:05;;;;;;;5.43;4.93;;;;;;;16.03;66.98;95161.44;5116441;28;20203;-65
2022/05/15 05:20:32;;;;;;;7.53;5.50;;;;;;;16.04;67.45;95165.81;5116513;28;20188;-65
2022/05/15 05:22:58;;;;;;;5.40;4.90;;;;;;;16.07;67.85;95169.81;5116272;28;20184;-65
2022/05/15 05:25:25;;;;;;;7.28;5.10;;;;;;;16.09;67.97;95165.47;5115788;28;20198;-65
2022/05/15 05:27:52;;;;;;;6.00;5.40;;;;;;;16.09;68.51;95171.03;5116469;28;20215;-65
2022/05/15 05:30:20;;;;;;;7.32;5.68;;;;;;;16.13;68.72;95168.28;5116210;28;20622;-65
2022/05/15 05:32:47;;;;;;;6.20;5.15;;;;;;;16.20;68.79;95170.31;5115712;28;20199;-65
2022/05/15 05:35:16;;;;;;;5.97;5.03;;;;;;;16.23;68.83;95170.34;5116678;28;20188;-65
2022/05/15 05:37:43;;;;;;;6.82;5.53;;;;;;;16.29;68.55;95167.97;5115715;28;20199;-65
2022/05/15 05:40:11;;;;;;;9.82;5.72;;;;;;;16.35;67.77;95161.66;5115941;28;20192;-64
2022/05/15 05:42:38;;;;;;;6.68;6.10;;;;;;;16.43;67.74;95158.91;5115928;28;20199;-64
2022/05/15 05:45:07;;;;;;;6.20;5.57;;;;;;;16.47;67.37;95166.09;5116267;28;20195;-64
2022/05/15 05:47:34;;;;;;;7.18;5.70;;;;;;;16.54;67.24;95154.22;5116677;28;20221;-64
2022/05/15 05:50:00;;;;;;;7.93;5.72;;;;;;;16.55;67.59;95164.94;5116693;28;20188;-65
2022/05/15 05:52:29;;;;;;;5.53;4.93;;;;;;;16.59;67.21;95159.41;5115378;28;20199;-65
2022/05/15 05:54:55;;;;;;;7.05;5.28;;;;;;;16.64;66.69;95170.19;5115421;28;20195;-65
2022/05/15 05:57:22;;;;;;;5.68;5.03;;;;;;;16.67;64.75;95166.63;5115193;28;20192;-65
2022/05/15 05:59:49;;;;;;;5.13;4.65;;;;;;;16.72;64.78;95162.66;5115177;28;20627;-65
2022/05/15 06:02:16;;;;;;;5.75;5.25;;;;;;;16.75;64.39;95164.69;5115731;28;20195;-68
2022/05/15 06:04:42;;;;;;;6.68;5.03;;;;;;;16.80;64.12;95167.91;5116056;28;20236;-65
2022/05/15 06:07:11;;;;;;;6.20;5.28;;;;;;;16.86;63.89;95168.34;5115671;28;20180;-65
2022/05/15 06:09:42;;;;;;;4.70;4.30;;;;;;;16.90;63.21;95160.78;5114903;28;20199;-65
2022/05/15 06:12:10;;;;;;;5.53;4.97;;;;;;;16.93;62.34;95171.16;5115771;28;20203;-65
2022/05/15 06:14:38;;;;;;;5.25;4.60;;;;;;;16.97;61.22;95166.38;5114761;28;20210;-65
2022/05/15 06:17:05;;;;;;;5.80;5.05;;;;;;;17.02;60.20;95170.78;5115573;28;20200;-65
2022/05/15 06:19:33;;;;;;;5.28;4.57;;;;;;;17.05;60.52;95170.78;5115530;28;20176;-65
2022/05/15 06:22:00;;;;;;;4.75;4.05;;;;;;;17.09;60.58;95173.59;5115306;28;20194;-65
2022/05/15 06:24:26;;;;;;;4.85;4.32;;;;;;;17.15;60.62;95177.59;5115485;28;20184;-65
2022/05/15 06:26:57;;;;;;;5.20;4.70;;;;;;;17.19;61.13;95174.84;5114951;28;20196;-65
2022/05/15 06:29:24;;;;;;;4.63;4.20;;;;;;;17.20;61.13;95174.44;5114258;28;20639;-65
2022/05/15 06:31:50;;;;;;;4.95;4.55;;;;;;;17.23;60.69;95176.44;5115258;28;20257;-65
2022/05/15 06:34:18;;;;;;;4.72;4.20;;;;;;;17.28;60.53;95180.81;5117927;28;20214;-65
2022/05/15 06:36:44;;;;;;;5.90;4.30;;;;;;;17.28;60.37;95184.44;5119607;28;20194;-65
2022/05/15 06:39:11;;;;;;;5.13;4.43;;;;;;;17.31;60.44;95188.41;5119271;28;20202;-65
2022/05/15 06:41:38;;;;;;;5.90;4.38;;;;;;;17.34;60.38;95176.47;5118299;28;20650;-65
2022/05/15 06:44:07;;;;;;;7.35;5.13;;;;;;;17.38;59.92;95182.84;5119742;28;20202;-65
2022/05/15 06:46:34;;;;;;;7.97;5.20;;;;;;;17.37;60.15;95183.25;5119589;28;20205;-65
2022/05/15 06:49:01;;;;;;;5.82;4.57;;;;;;;17.35;60.23;95188.41;5119675;28;20211;-65
2022/05/15 06:51:28;;;;;;;5.45;4.38;;;;;;;17.35;60.04;95185.63;5118897;28;20194;-67
2022/05/15 06:53:55;;;;;;;5.28;4.47;;;;;;;17.36;59.31;95184.41;5119217;28;20188;-66
2022/05/15 06:59:07;;;;;;;4.88;4.32;;;;;;;17.48;58.95;95181.28;5117998;28;20223;-65
2022/05/15 07:01:34;;;;;;;5.57;4.10;;;;;;;17.50;57.55;95176.91;5118878;28;20284;-65
2022/05/15 07:04:01;;;;;;;4.35;3.83;;;;;;;17.54;58.92;95174.13;5119261;28;20190;-65
2022/05/15 07:06:28;;;;;;;4.53;4.13;;;;;;;17.56;58.24;95175.31;5118230;28;20191;-66
2022/05/15 07:08:55;;;;;;;4.75;4.13;;;;;;;17.60;58.37;95177.31;5119562;28;20205;-65
2022/05/15 07:11:22;;;;;;;5.13;4.00;;;;;;;17.61;57.90;95178.91;5119256;28;20192;-66
2022/05/15 07:13:49;;;;;;;6.25;4.00;;;;;;;17.64;56.95;95169.75;5118334;28;20196;-66
2022/05/15 07:16:17;;;;;;;4.07;3.78;;;;;;;17.70;57.53;95182.13;5118182;28;20222;-65
2022/05/15 07:18:44;;;;;;;4.53;4.13;;;;;;;17.71;57.46;95180.91;5118984;28;20187;-66
2022/05/15 07:21:11;;;;;;;3.88;3.42;;;;;;;17.70;53.72;95182.13;5118625;28;20188;-66
2022/05/15 07:23:38;;;;;;;5.35;3.05;;;;;;;17.71;54.64;95184.50;5118873;28;20198;-65
2022/05/15 07:26:06;;;;;;;6.32;3.33;;;;;;;17.72;53.61;95180.53;5118772;28;20192;-65
2022/05/15 07:28:32;;;;;;;3.25;2.95;;;;;;;17.72;53.32;95180.53;5118606;28;20208;-65
2022/05/15 07:30:59;;;;;;;4.60;3.33;;;;;;;17.75;53.83;95179.75;5118699;28;20187;-65
2022/05/15 07:33:29;;;;;;;4.10;3.70;;;;;;;17.84;53.45;95178.59;5118531;28;20175;-65
2022/05/15 07:35:56;;;;;;;3.65;2.95;;;;;;;17.94;52.87;95184.19;5118319;28;20488;-65
2022/05/15 07:38:23;;;;;;;3.65;3.10;;;;;;;18.07;53.25;95178.19;5117655;28;20187;-66
2022/05/15 07:40:50;;;;;;;3.65;2.60;;;;;;;18.23;51.65;95186.97;5118143;28;20662;-67
2022/05/15 07:43:17;;;;;;;5.45;3.50;;;;;;;18.27;51.84;95188.56;5117887;28;20195;-66
2022/05/15 07:45:44;;;;;;;4.63;3.60;;;;;;;18.25;53.17;95170.59;5117686;28;20195;-66
2022/05/15 07:48:12;;;;;;;5.57;3.53;;;;;;;18.29;54.01;95179.78;5118512;28;20218;-66
2022/05/15 07:50:59;;;;;;;4.93;4.00;;;;;;;18.34;53.21;95181.34;5118237;28;20196;-66
2022/05/15 07:53:26;;;;;;;4.22;3.83;;;;;;;18.36;53.42;95181.78;5118307;28;20557;-66
2022/05/15 07:55:54;;;;;;;5.18;3.17;;;;;;;18.36;51.70;95184.56;5118167;28;20245;-66
2022/05/15 07:58:23;;;;;;;3.40;3.10;;;;;;;18.39;51.61;95194.94;5117123;28;20240;-66
2022/05/15 08:00:52;;;;;;;3.28;2.95;;;;;;;18.36;50.04;95179.78;5118083;28;20199;-66
2022/05/15 08:03:19;;;;;;;3.70;3.15;;;;;;;18.38;50.56;95188.56;5118054;28;20184;-67
2022/05/15 08:08:32;;;;;;;3.70;3.05;;;;;;;18.53;52.63;95184.53;5117556;28;20259;-66
2022/05/15 08:11:00;;;;;;;5.32;3.75;;;;;;;18.62;51.42;95186.91;5117591;28;20183;-66
2022/05/15 08:13:28;;;;;;;5.15;4.00;;;;;;;18.65;51.29;95194.50;5116848;28;20208;-65
2022/05/15 08:15:55;;;;;;;3.90;3.50;;;;;;;18.69;51.94;95194.47;5117765;28;20199;-65
2022/05/15 08:23:52;;;;;;;6.60;3.50;;;;;;;18.83;49.93;95202.06;5086297;28;20215;-66
2022/05/15 08:26:20;;;;;;;7.05;3.10;;;;;;;18.86;50.56;95198.47;5117579;28;20192;-66
2022/05/15 08:28:48;;;;;;;4.32;3.80;;;;;;;18.92;49.39;95202.47;5116537;28;20211;-65
2022/05/15 08:31:19;;;;;;;4.68;3.08;;;;;;;18.97;49.57;95200.03;5117569;28;20188;-66
2022/05/15 08:33:46;;;;;;;3.50;3.15;;;;;;;18.98;49.51;95206.41;5117726;28;20188;-66
2022/05/15 08:36:13;;;;;;;5.88;3.70;;;;;;;19.01;49.94;95208.41;5116499;28;20187;-65
2022/05/15 08:38:40;;;;;;;4.53;3.35;;;;;;;19.08;51.01;95210.38;5116156;28;20716;-66
2022/05/15 08:41:17;;;;;;;5.97;2.88;;;;;;;19.19;49.53;95209.13;5117313;28;20236;-66
2022/05/15 08:43:46;;;;;;;5.38;3.28;;;;;;;19.24;48.79;95200.34;5117276;28;20187;-65
2022/05/15 08:46:34;;;;;;;4.13;3.33;;;;;;;19.27;48.93;95201.50;5117188;28;20206;-66
2022/05/15 08:49:08;;;;;;;3.03;2.80;;;;;;;19.31;45.89;95199.50;5116904;28;20530;-66
2022/05/15 08:51:35;;;;;;;5.47;2.78;;;;;;;19.38;47.51;95198.66;5117092;28;20210;-66
2022/05/15 08:54:05;;;;;;;3.45;2.70;;;;;;;19.55;47.74;95208.19;5116842;28;20188;-66
2022/05/15 08:56:41;;;;;;;3.97;2.80;;;;;;;19.75;47.52;95203.69;5116041;28;20264;-65
2022/05/15 08:59:19;;;;;;;3.42;2.92;;;;;;;19.89;47.49;95200.81;5117023;28;20183;-65
2022/05/15 09:01:46;;;;;;;4.22;2.45;;;;;;;20.02;47.71;95197.53;5116628;28;20188;-66
2022/05/15 09:04:13;;;;;;;3.25;3.05;;;;;;;20.09;46.39;95198.28;5117357;28;20179;-67
2022/05/15 09:06:45;;;;;;;4.40;3.08;;;;;;;20.12;45.26;95205.06;5116488;28;20199;-67
2022/05/15 09:09:17;;;;;;;2.58;2.38;;;;;;;20.19;43.68;95205.00;5116373;28;20222;-66
2022/05/15 09:11:55;;;;;;;3.97;2.60;;;;;;;20.23;44.33;95202.19;5117134;28;20187;-67
2022/05/15 09:14:45;;;;;;;3.10;2.50;;;;;;;20.43;44.03;95200.41;5116574;28;20202;-66
2022/05/15 09:17:31;;;;;;;4.03;2.80;;;;;;;20.44;42.55;95207.56;5117525;28;20195;-67
2022/05/15 09:20:01;;;;;;;5.57;3.10;;;;;;;20.49;42.71;95190.34;5116532;28;20192;-66
2022/05/15 09:22:31;;;;;;;2.70;2.50;;;;;;;20.59;43.36;95186.69;5115987;28;20188;-66
2022/05/15 09:24:58;;;;;;;4.18;2.72;;;;;;;20.62;43.18;95187.84;5116646;28;20183;-66
2022/05/15 09:27:28;;;;;;;4.78;3.28;;;;;;;20.64;42.59;95202.25;5116151;28;20196;-66
2022/05/15 09:29:56;;;;;;;2.90;2.60;;;;;;;20.75;42.35;95190.94;5116745;28;20199;-67
2022/05/15 09:32:33;;;;;;;3.53;2.78;;;;;;;20.90;42.38;95195.94;5117060;28;20191;-68
2022/05/15 09:35:02;;;;;;;3.45;3.10;;;;;;;20.92;42.17;95190.75;5116682;28;20196;-66
2022/05/15 09:40:16;;;;;;;2.92;2.70;;;;;;;21.05;40.53;95184.59;5116991;28;20203;-66
2022/05/15 09:45:53;;;;;;;3.67;2.35;;;;;;;21.18;40.36;95177.22;5116088;28;20286;-67
2022/05/15 09:48:23;;;;;;;3.10;2.47;;;;;;;21.32;40.33;95185.47;5116192;28;20223;-67
2022/05/15 09:50:57;;;;;;;3.38;2.80;;;;;;;21.35;42.03;95179.06;5116498;28;20184;-67
2022/05/15 09:53:27;;;;;;;3.63;3.33;;;;;;;21.36;40.26;95172.22;5115733;28;20199;-67
2022/05/15 09:55:59;;;;;;;3.72;2.53;;;;;;;21.42;41.29;95177.34;5116616;28;20200;-66
2022/05/15 09:58:36;;;;;;;3.42;3.13;;;;;;;21.53;41.43;95184.44;5116571;28;20180;-67
2022/05/15 10:01:13;;;;;;;4.28;2.92;;;;;;;21.49;38.64;95182.88;5115290;28;20195;-66
2022/05/15 10:03:40;;;;;;;3.13;2.80;;;;;;;21.54;39.21;95171.97;5116476;28;20194;-67
2022/05/15 10:06:09;;;;;;;5.68;2.55;;;;;;;21.70;39.67;95176.19;5116688;28;20225;-66
2022/05/15 10:08:37;;;;;;;3.72;2.80;;;;;;;21.89;40.45;95181.09;5114989;28;22157;-66
2022/05/15 10:11:07;;;;;;;3.92;3.17;;;;;;;21.92;38.51;95173.84;5116522;28;20211;-67
2022/05/15 10:13:38;;;;;;;3.55;2.70;;;;;;;21.87;38.72;95173.09;5115724;28;20580;-67
2022/05/15 10:16:09;;;;;;;3.35;2.88;;;;;;;21.91;39.50;95177.88;5116456;28;20279;-67
2022/05/15 10:18:46;;;;;;;2.88;2.67;;;;;;;22.03;40.14;95177.28;5117138;28;20203;-67
2022/05/15 10:21:14;;;;;;;6.55;2.78;;;;;;;22.09;39.77;95169.97;5115808;28;20200;-67
2022/05/15 10:23:46;;;;;;;5.45;3.53;;;;;;;22.03;39.84;95172.47;5116142;28;20265;-67
2022/05/15 10:26:19;;;;;;;3.75;3.40;;;;;;;21.92;40.25;95174.63;5116857;28;20184;-67
2022/05/15 10:28:51;;;;;;;4.20;2.58;;;;;;;21.94;39.15;95177.03;5116841;28;20200;-67
2022/05/15 10:31:20;;;;;;;4.53;3.55;;;;;;;21.99;39.05;95163.31;5115569;28;20195;-67
2022/05/15 10:33:49;;;;;;;3.47;3.08;;;;;;;22.09;37.37;95167.97;5115432;28;20192;-66
2022/05/15 10:36:37;;;;;;;3.75;2.90;;;;;;;22.11;37.90;95171.16;5115532;28;20191;-67
2022/05/15 10:39:11;;;;;;;2.80;2.50;;;;;;;22.15;38.21;95161.88;5115514;28;20192;-66
2022/05/15 10:41:45;;;;;;;2.63;2.42;;;;;;;22.18;39.51;95161.81;5114348;28;20237;-66
2022/05/15 10:44:35;;;;;;;3.42;2.58;;;;;;;22.35;39.99;95166.34;5114378;28;20202;-65
2022/05/15 10:47:06;;;;;;;3.75;2.95;;;;;;;22.51;39.18;95164.88;5114999;28;20590;-65
2022/05/15 10:49:44;;;;;;;4.03;2.63;;;;;;;22.56;39.40;95155.97;5115036;28;20212;-65
2022/05/15 10:52:17;;;;;;;3.25;2.60;;;;;;;22.64;38.67;95156.63;5115392;28;20191;-65
2022/05/15 10:57:44;;;;;;;5.15;3.03;;;;;;;22.76;39.60;95162.41;5114359;28;20192;-65
2022/05/15 11:00:19;;;;;;;3.97;2.90;;;;;;;22.79;39.81;95153.13;5115229;28;20187;-65
2022/05/15 11:03:06;;;;;;;4.40;2.65;;;;;;;22.80;39.77;95154.72;5115210;28;20195;-65
2022/05/15 11:05:35;;;;;;;4.32;2.70;;;;;;;22.90;39.30;95152.13;5115056;28;20196;-65
2022/05/15 11:08:18;;;;;;;3.15;2.80;;;;;;;22.95;39.35;95148.84;5114109;28;20210;-65
2022/05/15 11:10:53;;;;;;;3.22;2.92;;;;;;;23.02;39.45;95149.53;5115065;28;20206;-65
2022/05/15 11:13:22;;;;;;;4.57;3.17;;;;;;;23.03;37.95;95145.47;5115077;28;20184;-65
2022/05/15 11:15:58;;;;;;;3.20;2.95;;;;;;;23.06;38.51;95150.25;5115077;28;20212;-65
2022/05/15 11:18:40;;;;;;;2.88;2.60;;;;;;;23.14;38.83;95153.69;5115166;28;20188;-66
2022/05/15 11:21:11;;;;;;;3.17;2.83;;;;;;;23.20;38.03;95145.53;5117819;28;20223;-65
2022/05/15 11:23:43;;;;;;;2.70;2.50;;;;;;;23.19;38.39;95135.50;5118918;28;20180;-66
2022/05/15 11:26:16;;;;;;;3.03;2.80;;;;;;;23.25;39.15;95139.41;5117636;28;20227;-66
2022/05/15 11:28:45;;;;;;;3.10;2.75;;;;;;;23.32;38.82;95135.66;5118613;28;20322;-66
2022/05/15 11:31:16;;;;;;;4.00;3.58;;;;;;;23.39;38.91;95136.31;5118058;28;20195;-66
2022/05/15 11:33:52;;;;;;;4.40;2.90;;;;;;;23.49;39.36;95126.03;5118675;28;20202;-66
2022/05/15 11:36:33;;;;;;;3.33;3.03;;;;;;;23.52;39.51;95125.16;5118645;28;20190;-66
2022/05/15 11:39:04;;;;;;;3.40;2.90;;;;;;;23.53;39.05;95124.72;5117623;28;20195;-65
2022/05/15 11:41:38;;;;;;;4.60;3.00;;;;;;;23.56;39.14;95114.59;5118428;28;20327;-65
2022/05/15 11:44:07;;;;;;;4.43;3.40;;;;;;;23.68;39.42;95118.81;5117271;28;20199;-65
2022/05/15 11:47:19;;;;;;;3.95;3.38;;;;;;;23.85;38.63;95119.63;5117166;28;20226;-66
2022/05/15 11:50:00;;;;;;;3.53;3.22;;;;;;;23.84;37.77;95118.81;5039145;28;20221;-65
2022/05/15 11:52:37;;;;;;;3.55;3.10;;;;;;;23.84;37.87;95121.63;5115616;28;20203;-66
2022/05/15 11:55:45;;;;;;;3.88;3.58;;;;;;;23.91;40.02;95109.41;5117398;28;20206;-65
2022/05/15 11:58:37;;;;;;;3.40;2.70;;;;;;;23.97;38.35;95113.31;5082040;28;20280;-66
2022/05/15 12:01:10;;;;;;;4.85;3.13;;;;;;;23.98;38.54;95110.03;5115277;28;20219;-65
2022/05/15 12:03:48;;;;;;;3.42;3.10;;;;;;;23.97;38.50;95111.28;5117245;28;20192;-65
2022/05/15 12:06:19;;;;;;;4.38;3.78;;;;;;;24.02;37.67;95102.28;5117977;28;20187;-66
2022/05/15 12:08:51;;;;;;;3.55;3.25;;;;;;;23.94;38.30;95106.53;5117203;28;20238;-66